Time;durP1;ratioP1;P1;durP2;ratioP2;P2;SDS_P1;SDS_P2;PMS_P1;PMS_P2;Temp;Humidity;BMP_temperature;BMP_pressure;BME280_temperature;BME280_humidity;BME280_pressure;Samples;Min_cycle;Max_cycle;Signal;HPM_P1;HPM_P2
2023/10/10 00:02:18;;;;;;;12.02;3.80;;;;;;;14.36;100.00;101988.28;4950708;28;20082;-77
2023/10/10 00:04:47;;;;;;;;;;;;;;;14.34;100.00;101988.28;4937846;28;20047;-77
2023/10/10 00:07:14;;;;;;;10.35;3.85;;;;;;;14.35;100.00;101987.41;4920591;28;20352;-78
2023/10/10 00:09:44;;;;;;;10.60;3.95;;;;;;;14.37;100.00;101988.31;4949135;28;20420;-77
2023/10/10 00:12:25;;;;;;;7.07;3.60;;;;;;;14.37;100.00;101987.44;4934765;28;20046;-77
2023/10/10 00:14:53;;;;;;;10.23;3.60;;;;;;;14.37;100.00;101995.38;4909179;28;20055;-78
2023/10/10 00:17:20;;;;;;;15.27;4.18;;;;;;;14.37;100.00;101996.25;4935981;28;20046;-78
2023/10/10 00:19:58;;;;;;;7.45;3.70;;;;;;;14.37;100.00;101987.44;4948610;28;20054;-77
2023/10/10 00:22:35;;;;;;;10.25;3.97;;;;;;;14.36;100.00;101985.63;4925078;28;20066;-78
2023/10/10 00:25:12;;;;;;;8.65;4.03;;;;;;;14.35;100.00;101991.84;4949827;28;20054;-78
2023/10/10 00:27:40;;;;;;;9.88;4.32;;;;;;;14.33;100.00;101990.91;4966424;28;20488;-78
2023/10/10 00:30:07;;;;;;;12.25;3.75;;;;;;;14.33;100.00;101993.56;4894873;28;20065;-77
2023/10/10 00:32:42;;;;;;;7.82;3.72;;;;;;;14.32;100.00;101997.09;4947531;28;20396;-77
2023/10/10 00:35:09;;;;;;;9.23;4.45;;;;;;;14.30;100.00;101993.56;4935782;28;20059;-77
2023/10/10 00:37:37;;;;;;;18.70;4.80;;;;;;;14.29;100.00;101995.34;4958193;28;20541;-78
2023/10/10 00:40:10;;;;;;;8.15;4.15;;;;;;;14.28;100.00;101992.66;4950622;28;20040;-78
2023/10/10 00:42:40;;;;;;;9.90;4.88;;;;;;;14.28;100.00;101993.53;4938672;28;20047;-78
2023/10/10 00:45:10;;;;;;;13.82;5.65;;;;;;;14.28;100.00;101988.25;4954655;28;20039;-78
2023/10/10 00:47:42;;;;;;;7.90;5.00;;;;;;;14.28;100.00;101993.53;4908537;28;20050;-78
2023/10/10 00:50:24;;;;;;;11.88;5.85;;;;;;;14.27;100.00;101990.88;4950702;28;20046;-78
2023/10/10 00:52:55;;;;;;;12.65;6.78;;;;;;;14.25;100.00;101977.59;4935253;28;20062;-77
2023/10/10 00:55:24;;;;;;;;;;;;;;;14.22;100.00;101975.84;4968307;28;20167;-78
2023/10/10 00:57:55;;;;;;;14.05;6.38;;;;;;;14.20;100.00;101958.16;4971132;28;19922;-78
2023/10/10 01:00:29;;;;;;;16.05;6.95;;;;;;;14.19;100.00;101972.28;4908823;29;20484;-78
2023/10/10 01:03:22;;;;;;;16.13;6.97;;;;;;;14.17;100.00;101972.25;4887694;29;20059;-78
2023/10/10 01:05:52;;;;;;;12.82;7.20;;;;;;;14.18;100.00;101959.91;4931427;29;20410;-77
2023/10/10 01:08:23;;;;;;;18.50;7.63;;;;;;;14.17;100.00;101953.72;4937608;28;20125;-78
2023/10/10 01:10:55;;;;;;;;;;;;;;;14.15;100.00;101966.06;4946332;29;20496;-77
2023/10/10 01:13:23;;;;;;;14.15;6.85;;;;;;;14.16;100.00;101977.59;4915583;29;19923;-78
2023/10/10 01:15:50;;;;;;;16.63;7.10;;;;;;;14.15;100.00;101978.44;4944996;28;20051;-78
2023/10/10 01:18:17;;;;;;;13.10;7.40;;;;;;;14.14;100.00;101979.31;4892656;29;20059;-78
2023/10/10 01:20:45;;;;;;;14.70;6.40;;;;;;;14.14;100.00;101972.25;4928054;29;20059;-78
2023/10/10 01:23:18;;;;;;;10.98;7.03;;;;;;;14.16;100.00;101966.97;4912417;28;20070;-77
2023/10/10 01:25:47;;;;;;;13.20;7.57;;;;;;;14.18;100.00;101959.91;4903058;29;20059;-77
2023/10/10 01:33:22;;;;;;;11.20;7.95;;;;;;;14.21;100.00;101942.28;4888995;29;20055;-77
2023/10/10 01:35:52;;;;;;;14.80;8.10;;;;;;;14.23;100.00;101929.00;4932593;29;20686;-78
2023/10/10 01:38:55;;;;;;;13.65;7.85;;;;;;;14.24;100.00;101928.13;4931521;29;20051;-77
2023/10/10 01:41:31;;;;;;;10.75;6.90;;;;;;;14.24;100.00;101922.84;4936942;28;20043;-77
2023/10/10 01:46:45;;;;;;;23.60;9.88;;;;;;;14.19;100.00;101932.50;4916996;29;20039;-77
2023/10/10 01:49:14;;;;;;;17.98;8.88;;;;;;;14.17;100.00;101940.44;4902687;28;20058;-77
2023/10/10 01:51:43;;;;;;;13.45;8.77;;;;;;;14.16;100.00;101930.75;4908079;29;20059;-77
2023/10/10 01:54:19;;;;;;;17.20;9.13;;;;;;;14.15;100.00;101922.78;4917170;29;20039;-77
2023/10/10 01:56:47;;;;;;;18.08;9.32;;;;;;;14.15;100.00;101913.06;4908188;29;20066;-77
2023/10/10 01:59:19;;;;;;;16.27;9.75;;;;;;;14.13;100.00;101916.59;4926684;28;20051;-77
2023/10/10 02:01:48;;;;;;;16.50;10.10;;;;;;;14.12;100.00;101925.41;4921064;29;20908;-77
2023/10/10 02:04:21;;;;;;;15.48;9.55;;;;;;;14.10;100.00;101924.50;4896484;29;20054;-77
2023/10/10 02:06:55;;;;;;;15.65;9.35;;;;;;;14.07;100.00;101927.16;4915187;29;20043;-77
2023/10/10 02:11:54;;;;;;;18.20;9.50;;;;;;;14.04;100.00;101917.41;4916042;29;20055;-77
2023/10/10 02:14:25;;;;;;;15.90;8.57;;;;;;;14.02;100.00;101906.78;4940979;28;20035;-77
2023/10/10 02:16:55;;;;;;;13.45;8.55;;;;;;;13.99;100.00;101904.16;4927647;29;20420;-77
2023/10/10 02:19:40;;;;;;;14.48;7.70;;;;;;;13.98;100.00;101898.81;4882291;29;20043;-77
2023/10/10 02:22:22;;;;;;;13.63;7.68;;;;;;;13.95;100.00;101899.72;4907124;29;20054;-79
2023/10/10 02:25:31;;;;;;;18.67;9.05;;;;;;;13.93;100.00;101901.47;4928496;29;20479;-77
2023/10/10 02:28:00;;;;;;;12.75;8.00;;;;;;;13.90;100.00;101896.13;4919017;29;20039;-78
2023/10/10 02:30:36;;;;;;;13.77;7.63;;;;;;;13.86;100.00;101894.34;4915677;29;20683;-79
2023/10/10 02:33:29;;;;;;;17.02;8.55;;;;;;;13.86;100.00;101894.34;4921334;29;20043;-79
2023/10/10 02:35:57;;;;;;;14.23;8.27;;;;;;;13.82;100.00;101892.56;4895903;29;20054;-77
2023/10/10 02:38:32;;;;;;;9.38;6.95;;;;;;;13.81;100.00;101888.13;4931229;29;20101;-79
2023/10/10 02:46:34;;;;;;;19.58;8.57;;;;;;;13.76;100.00;101895.16;4929307;29;20063;-78
2023/10/10 02:49:22;;;;;;;16.88;9.48;;;;;;;13.74;100.00;101886.31;4901042;29;20077;-79
2023/10/10 02:51:55;;;;;;;19.08;9.60;;;;;;;13.73;100.00;101881.91;4895448;29;20055;-79
2023/10/10 02:54:34;;;;;;;15.15;8.77;;;;;;;13.71;100.00;101879.25;4960421;28;20205;-79
2023/10/10 03:00:16;;;;;;;13.73;8.10;;;;;;;13.70;100.00;101884.50;4936410;28;20055;-78
2023/10/10 03:02:55;;;;;;;20.70;8.60;;;;;;;13.67;100.00;101880.09;4967233;28;20818;-79
2023/10/10 03:05:44;;;;;;;21.00;15.05;;;;;;;13.69;100.00;101881.00;4903042;28;20059;-79
2023/10/10 03:08:19;;;;;;;18.67;11.50;;;;;;;13.71;100.00;101884.53;4928568;28;20047;-79
2023/10/10 03:10:54;;;;;;;14.77;10.27;;;;;;;13.73;100.00;101885.44;4951931;28;20051;-78
2023/10/10 03:13:35;;;;;;;17.20;9.35;;;;;;;13.76;100.00;101892.50;4951850;28;20046;-79
2023/10/10 03:19:26;;;;;;;14.82;9.02;;;;;;;13.83;100.00;101894.31;4937634;28;20062;-78
2023/10/10 03:21:59;;;;;;;12.80;8.40;;;;;;;13.86;100.00;101894.34;4913286;28;20062;-79
2023/10/10 03:27:11;;;;;;;14.65;9.38;;;;;;;13.92;100.00;101894.38;4916744;29;20058;-79
2023/10/10 03:29:47;;;;;;;12.38;8.68;;;;;;;13.96;100.00;101893.50;4965776;28;20057;-79
2023/10/10 03:32:34;;;;;;;15.88;8.98;;;;;;;13.98;100.00;101886.44;4943253;28;20051;-78
2023/10/10 03:35:06;;;;;;;13.02;8.02;;;;;;;14.01;100.00;101891.78;4908696;28;20050;-79
2023/10/10 03:37:43;;;;;;;12.52;9.30;;;;;;;14.03;100.00;101892.69;4941769;28;20050;-79
2023/10/10 05:25:31;;;;;;;17.00;9.40;;;;;;;14.47;100.00;101834.53;4914148;28;20050;-78
2023/10/10 05:27:59;;;;;;;18.88;9.45;;;;;;;14.48;100.00;101836.28;4958950;28;20508;-79
2023/10/10 05:30:27;;;;;;;14.73;9.05;;;;;;;14.48;100.00;101831.00;4908878;28;20417;-79
2023/10/10 05:33:00;;;;;;;16.88;9.23;;;;;;;14.47;100.00;101819.50;4921331;28;20078;-83
2023/10/10 05:35:38;;;;;;;15.43;8.77;;;;;;;14.48;100.00;101820.38;4911404;28;20535;-79
2023/10/10 05:38:10;;;;;;;16.25;9.35;;;;;;;14.47;100.00;101814.19;4931743;28;20058;-80
2023/10/10 05:40:40;;;;;;;15.63;8.65;;;;;;;14.47;100.00;101811.53;4897994;28;20062;-80
2023/10/10 05:43:09;;;;;;;17.65;9.93;;;;;;;14.48;100.00;101823.94;4925940;28;20062;-79
2023/10/10 05:45:37;;;;;;;14.52;9.30;;;;;;;14.49;100.00;101827.47;4935003;28;20055;-79
2023/10/10 05:48:07;;;;;;;18.55;9.10;;;;;;;14.49;100.00;101815.09;4920778;28;20042;-79
2023/10/10 05:50:35;;;;;;;17.73;9.75;;;;;;;14.49;100.00;101815.09;4925374;28;20051;-79
2023/10/10 05:53:06;;;;;;;17.33;9.57;;;;;;;14.51;100.00;101831.00;4928233;28;20503;-81
2023/10/10 05:55:37;;;;;;;14.25;9.25;;;;;;;14.51;100.00;101812.44;4887361;28;20478;-79
2023/10/10 05:58:05;;;;;;;17.08;9.05;;;;;;;14.52;100.00;101806.28;4935037;28;20491;-80
2023/10/10 06:00:41;;;;;;;16.67;9.05;;;;;;;14.52;100.00;101798.31;4946337;28;20051;-79
2023/10/10 06:03:10;;;;;;;16.95;8.82;;;;;;;14.52;100.00;101793.88;4938054;28;20054;-78
2023/10/10 06:05:44;;;;;;;17.60;9.05;;;;;;;14.53;100.00;101800.06;4918606;28;20547;-79
2023/10/10 06:08:15;;;;;;;16.45;8.80;;;;;;;14.52;100.00;101796.53;4956928;28;20046;-78
2023/10/10 06:10:43;;;;;;;16.65;8.55;;;;;;;14.52;100.00;101798.31;4894596;28;20059;-78
2023/10/10 06:13:11;;;;;;;17.13;8.23;;;;;;;14.51;100.00;101796.53;4911524;29;20047;-78
2023/10/10 06:15:39;;;;;;;12.98;7.72;;;;;;;14.52;100.00;101800.97;4922130;28;20055;-79
2023/10/10 06:18:12;;;;;;;14.75;9.07;;;;;;;14.53;100.00;101794.75;4970270;28;20510;-79
2023/10/10 06:20:41;;;;;;;13.52;8.93;;;;;;;14.51;100.00;101799.19;4921456;28;20070;-78
2023/10/10 06:23:32;;;;;;;15.90;9.27;;;;;;;14.51;100.00;101797.41;4924873;28;20481;-78
2023/10/10 06:26:01;;;;;;;16.75;9.30;;;;;;;14.50;100.00;101793.00;4947681;28;20424;-79
2023/10/10 06:28:45;;;;;;;14.90;9.93;;;;;;;14.50;100.00;101803.59;4925769;28;20050;-79
2023/10/10 06:31:33;;;;;;;20.15;10.23;;;;;;;14.49;100.00;101795.66;4954656;28;20664;-79
2023/10/10 06:34:19;;;;;;;17.25;10.23;;;;;;;14.49;100.00;101793.88;4951539;28;20062;-79
2023/10/10 06:36:51;;;;;;;19.13;10.68;;;;;;;14.49;100.00;101793.88;4929130;28;20057;-79
2023/10/10 06:39:18;;;;;;;16.75;9.85;;;;;;;14.50;100.00;101795.66;4929826;28;20042;-78
2023/10/10 06:41:50;;;;;;;15.93;10.57;;;;;;;14.51;100.00;101800.06;4928530;28;20053;-79
2023/10/10 06:44:35;;;;;;;22.75;11.00;;;;;;;14.53;100.00;101794.75;4936409;28;20054;-79
2023/10/10 06:47:10;;;;;;;20.50;11.18;;;;;;;14.55;100.00;101787.69;4959165;28;20051;-78
2023/10/10 06:49:54;;;;;;;22.08;12.02;;;;;;;14.57;100.00;101788.59;4947688;28;20653;-79
2023/10/10 06:52:27;;;;;;;20.30;12.70;;;;;;;14.58;100.00;101783.31;4950535;28;20058;-79
2023/10/10 06:54:56;;;;;;;29.45;12.88;;;;;;;14.60;100.00;101785.97;4953474;28;20055;-79
2023/10/10 06:57:38;;;;;;;23.85;12.30;;;;;;;14.63;100.00;101793.94;4929543;28;20043;-78
2023/10/10 07:00:20;;;;;;;22.08;12.82;;;;;;;14.65;100.00;101793.94;4940496;29;20055;-79
2023/10/10 07:02:52;;;;;;;22.65;14.10;;;;;;;14.69;100.00;101790.38;4914514;28;20090;-79
2023/10/10 07:05:20;;;;;;;;;;;;;;;14.72;100.00;101785.97;4940975;28;20055;-77
2023/10/10 07:07:53;;;;;;;25.85;13.90;;;;;;;14.73;100.00;101777.16;4922766;29;19929;-79
2023/10/10 07:10:32;;;;;;;23.05;14.90;;;;;;;14.76;100.00;101782.47;4962487;28;20054;-78
2023/10/10 07:13:00;;;;;;;37.92;18.15;;;;;;;14.78;100.00;101783.34;4901974;29;20845;-78
2023/10/10 07:15:34;;;;;;;32.10;18.08;;;;;;;14.78;100.00;101788.66;4906312;29;20070;-78
2023/10/10 07:18:14;;;;;;;35.03;18.15;;;;;;;14.80;100.00;101776.28;4896149;29;20413;-78
2023/10/10 07:24:18;;;;;;;37.50;17.15;;;;;;;14.89;100.00;101764.75;4920307;29;20062;-78
2023/10/10 07:26:30;;;;;;;30.80;17.95;;;;;;;14.94;100.00;101760.34;4929937;29;20055;-78
2023/10/10 07:29:22;;;;;;;35.08;18.23;;;;;;;15.01;100.00;101763.88;4897760;28;20043;-78
2023/10/10 07:31:45;;;;;;;31.90;18.17;;;;;;;15.09;100.00;101766.53;4938833;29;20055;-78
2023/10/10 07:34:15;;;;;;;28.10;17.98;;;;;;;15.13;100.00;101760.34;4921119;29;20531;-79
2023/10/10 07:36:50;;;;;;;;;;;;;;;15.16;100.00;101750.59;4920476;28;20058;-79
2023/10/10 07:39:32;;;;;;;30.65;17.80;;;;;;;15.20;100.00;101741.75;4946758;29;19926;-78
2023/10/10 07:41:59;;;;;;;28.77;16.23;;;;;;;15.26;100.00;101732.00;4936439;28;20058;-81
2023/10/10 07:44:30;;;;;;;29.35;16.52;;;;;;;15.33;100.00;101728.41;4874628;28;20055;-81
2023/10/10 07:49:40;;;;;;;27.90;16.52;;;;;;;15.39;100.00;101739.94;4893766;29;20835;-80
2023/10/10 07:52:16;;;;;;;23.38;16.02;;;;;;;15.41;100.00;101742.59;4908372;29;20051;-81
2023/10/10 07:54:46;;;;;;;25.63;17.10;;;;;;;15.42;100.00;101739.03;4904790;29;20864;-81
2023/10/10 07:57:22;;;;;;;23.40;16.83;;;;;;;15.43;100.00;101738.16;4941644;28;20907;-82
2023/10/10 07:59:55;;;;;;;25.13;15.85;;;;;;;15.48;100.00;101751.41;4896681;28;20508;-79
2023/10/10 08:02:49;;;;;;;28.50;16.33;;;;;;;15.55;100.00;101758.47;4944432;28;20046;-79
2023/10/10 08:05:14;;;;;;;26.98;16.27;;;;;;;15.76;100.00;101750.47;4958483;28;20537;-79
2023/10/10 08:07:41;;;;;;;22.48;16.95;;;;;;;15.98;100.00;101756.56;4940999;28;20042;-79
2023/10/10 08:10:13;;;;;;;21.77;15.13;;;;;;;16.26;100.00;101766.19;4938138;28;20051;-78
2023/10/10 08:12:42;;;;;;;20.10;13.90;;;;;;;16.50;100.00;101755.41;4933819;28;20539;-78
2023/10/10 08:15:25;;;;;;;16.75;12.70;;;;;;;16.71;100.00;101758.75;4900922;28;20053;-79
2023/10/10 08:17:54;;;;;;;15.98;12.25;;;;;;;16.82;100.00;101751.63;4942916;28;20051;-79
2023/10/10 08:23:27;;;;;;;18.83;13.80;;;;;;;16.74;100.00;101754.31;4901621;28;20081;-79
2023/10/10 08:25:54;;;;;;;19.50;14.13;;;;;;;16.74;100.00;101746.31;4940662;28;20496;-79
2023/10/10 08:28:21;;;;;;;22.27;15.60;;;;;;;16.73;100.00;101749.91;4941203;28;20039;-79
2023/10/10 08:30:50;;;;;;;26.00;17.73;;;;;;;16.71;100.00;101743.72;4878989;28;20061;-79
2023/10/10 08:33:17;;;;;;;29.65;18.42;;;;;;;16.68;100.00;101756.16;4937458;28;20054;-79
2023/10/10 08:35:46;;;;;;;26.10;18.70;;;;;;;16.64;100.00;101744.63;4943669;28;20050;-78
2023/10/10 08:38:20;;;;;;;35.22;21.58;;;;;;;16.62;100.00;101734.91;4958496;28;20050;-79
2023/10/10 08:40:58;;;;;;;34.63;21.40;;;;;;;16.61;100.00;101722.50;4954873;28;20062;-79
2023/10/10 08:43:28;;;;;;;34.70;20.65;;;;;;;16.65;100.00;101729.56;4958070;28;20051;-80
2023/10/10 08:45:58;;;;;;;28.17;20.20;;;;;;;16.71;100.00;101726.84;4964117;28;20062;-79
2023/10/10 08:48:27;;;;;;;32.88;21.92;;;;;;;16.75;100.00;101731.25;4933624;28;20043;-79
2023/10/10 08:50:55;;;;;;;36.97;23.23;;;;;;;16.75;100.00;101728.59;4942499;28;20039;-80
2023/10/10 08:53:22;;;;;;;37.40;22.83;;;;;;;16.73;100.00;101728.59;4924472;28;20061;-80
2023/10/10 08:55:56;;;;;;;28.70;21.35;;;;;;;16.75;100.00;101717.94;4955677;28;20138;-80
2023/10/10 08:58:24;;;;;;;37.13;23.70;;;;;;;16.76;100.00;101719.69;4969187;28;20046;-80
2023/10/10 09:00:51;;;;;;;37.60;23.17;;;;;;;16.76;100.00;101714.38;4934372;28;20055;-80
2023/10/10 09:03:19;;;;;;;33.08;22.65;;;;;;;16.79;100.00;101710.81;4882243;28;20055;-79
2023/10/10 09:05:47;;;;;;;39.45;23.48;;;;;;;16.82;100.00;101716.09;4955221;28;20051;-79
2023/10/10 09:08:15;;;;;;;37.47;23.40;;;;;;;16.87;100.00;101706.34;4947746;28;20047;-79
2023/10/10 09:10:47;;;;;;;33.58;21.42;;;;;;;16.91;100.00;101708.06;4921005;28;20055;-80
2023/10/10 09:13:16;;;;;;;30.88;21.70;;;;;;;16.96;100.00;101703.59;4937950;28;20054;-79
2023/10/10 09:15:55;;;;;;;32.42;22.38;;;;;;;17.00;100.00;101712.44;4959797;28;20070;-81
2023/10/10 09:18:25;;;;;;;32.22;22.05;;;;;;;17.03;100.00;101707.97;4929958;28;20034;-79
2023/10/10 09:21:17;;;;;;;37.05;21.52;;;;;;;17.09;100.00;101707.91;4954173;28;20046;-79
2023/10/10 09:24:06;;;;;;;36.20;22.02;;;;;;;17.13;100.00;101704.28;4932714;28;20535;-79
2023/10/10 09:26:36;;;;;;;32.95;21.17;;;;;;;17.19;100.00;101714.00;4937776;28;20050;-79
2023/10/10 09:29:15;;;;;;;32.88;21.02;;;;;;;17.24;100.00;101711.28;4934856;29;20062;-78
2023/10/10 09:31:45;;;;;;;35.03;21.50;;;;;;;17.28;100.00;101697.94;4940165;28;20061;-79
2023/10/10 09:34:18;;;;;;;34.50;22.47;;;;;;;17.30;100.00;101700.59;4911861;28;20056;-78
2023/10/10 09:36:53;;;;;;;33.28;22.17;;;;;;;17.32;100.00;101696.13;4957309;28;20293;-78
2023/10/10 09:39:35;;;;;;;34.65;22.30;;;;;;;17.36;100.00;101689.84;4912798;28;20130;-79
2023/10/10 09:52:58;;;;;;;37.97;23.83;;;;;;;17.80;100.00;101699.06;4939582;28;20064;-80
2023/10/10 10:06:34;;;;;;;35.45;22.23;;;;;;;18.16;100.00;101698.59;4967717;28;20069;-78
2023/10/10 10:09:17;;;;;;;31.90;21.30;;;;;;;18.18;100.00;101692.34;4948790;28;20051;-79
2023/10/10 10:12:10;;;;;;;32.53;19.85;;;;;;;18.20;100.00;101689.66;4957994;28;20042;-79
2023/10/10 10:14:47;;;;;;;39.10;21.13;;;;;;;18.25;100.00;101695.81;4949490;28;20043;-79
2023/10/10 10:17:30;;;;;;;37.95;27.42;;;;;;;18.33;100.00;101695.69;4907158;28;20051;-79
2023/10/10 10:20:20;;;;;;;38.58;24.08;;;;;;;18.38;100.00;101681.38;4961356;28;20035;-78
2023/10/10 10:22:53;;;;;;;33.72;24.40;;;;;;;18.46;100.00;101671.44;4947017;28;20051;-79
2023/10/10 10:25:28;;;;;;;35.53;23.48;;;;;;;18.53;100.00;101676.69;4942194;28;20046;-79
2023/10/10 10:28:14;;;;;;;39.80;23.80;;;;;;;18.57;100.00;101687.28;4948575;28;20058;-79
2023/10/10 10:30:53;;;;;;;39.53;23.30;;;;;;;18.61;100.00;101680.97;4951013;28;20061;-79
2023/10/10 10:33:23;;;;;;;38.83;23.65;;;;;;;18.65;100.00;101681.81;4928414;28;20051;-79
2023/10/10 10:35:56;;;;;;;33.05;22.08;;;;;;;18.67;100.00;101686.22;4948116;28;20420;-79
2023/10/10 10:38:25;;;;;;;40.05;24.73;;;;;;;18.70;100.00;101688.84;4945208;28;20061;-79
2023/10/10 10:41:04;;;;;;;38.08;23.40;;;;;;;18.75;100.00;101687.88;4924892;28;20050;-79
2023/10/10 10:43:38;;;;;;;37.78;24.88;;;;;;;18.82;100.00;101676.22;4932386;28;20054;-79
2023/10/10 10:46:14;;;;;;;36.03;24.73;;;;;;;18.86;100.00;101675.25;4943629;28;20039;-79
2023/10/10 10:48:47;;;;;;;33.20;23.20;;;;;;;18.86;100.00;101680.59;4924921;28;20055;-82
2023/10/10 10:54:35;;;;;;;36.35;23.70;;;;;;;18.88;100.00;101684.09;4905556;28;20054;-79
2023/10/10 10:57:03;;;;;;;40.20;23.20;;;;;;;18.88;100.00;101684.09;4924676;28;20076;-79
2023/10/10 10:59:38;;;;;;;37.38;23.20;;;;;;;18.87;100.00;101677.03;4948479;28;20909;-79
2023/10/10 11:02:16;;;;;;;42.03;25.13;;;;;;;18.84;100.00;101675.25;4933577;28;20061;-79
2023/10/10 11:04:50;;;;;;;38.22;24.15;;;;;;;18.86;100.00;101676.13;4936232;28;20404;-79
2023/10/10 11:07:28;;;;;;;34.17;20.58;;;;;;;18.88;100.00;101678.75;4935088;28;20047;-80
2023/10/10 11:10:08;;;;;;;37.67;19.67;;;;;;;18.92;100.00;101683.13;4905964;28;20059;-79
2023/10/10 11:12:40;;;;;;;30.15;18.60;;;;;;;18.99;100.00;101678.56;4937758;28;20043;-80
2023/10/10 11:15:10;;;;;;;32.90;19.55;;;;;;;19.02;100.00;101676.72;4950015;28;20055;-79
2023/10/10 11:17:42;;;;;;;;;;;;;;;19.03;100.00;101681.16;4941380;28;20042;-79
2023/10/10 11:20:55;;;;;;;30.63;18.77;;;;;;;19.08;100.00;101676.59;4897786;28;20071;-80
2023/10/10 11:23:11;;;;;;;32.78;19.65;;;;;;;19.12;100.00;101681.91;4936972;28;20074;-80
2023/10/10 11:25:58;;;;;;;36.80;19.60;;;;;;;19.08;100.00;101665.91;4941339;28;20058;-79
2023/10/10 11:28:47;;;;;;;37.60;21.50;;;;;;;19.03;100.00;101675.81;4960635;28;20046;-80
2023/10/10 11:31:23;;;;;;;35.17;20.95;;;;;;;18.99;100.00;101667.91;4939257;28;20533;-80
2023/10/10 11:34:10;;;;;;;30.88;20.48;;;;;;;18.97;100.00;101673.25;4945903;28;20046;-80
2023/10/10 11:36:39;;;;;;;36.75;22.35;;;;;;;18.98;100.00;101669.69;4933726;28;20050;-80
2023/10/10 11:39:31;;;;;;;29.98;21.13;;;;;;;18.99;100.00;101660.75;4928013;28;20051;-80
2023/10/10 11:42:03;;;;;;;36.20;20.27;;;;;;;19.00;100.00;101653.66;4927852;28;20054;-80
2023/10/10 11:44:33;;;;;;;38.08;20.17;;;;;;;19.03;100.00;101650.91;4952425;28;20058;-80
2023/10/10 11:47:04;;;;;;;33.50;19.53;;;;;;;19.08;100.00;101644.56;4920226;28;20054;-79
2023/10/10 11:49:32;;;;;;;32.35;19.67;;;;;;;19.13;100.00;101646.25;4923254;28;20306;-80
2023/10/10 11:51:59;;;;;;;33.83;18.92;;;;;;;19.19;100.00;101646.16;4912031;28;20046;-80
2023/10/10 11:54:27;;;;;;;33.75;19.80;;;;;;;19.25;100.00;101640.69;4948593;28;20049;-80
2023/10/10 11:56:55;;;;;;;33.97;20.13;;;;;;;19.30;100.00;101633.47;4925944;28;20949;-80
2023/10/10 11:59:23;;;;;;;36.78;18.55;;;;;;;19.31;100.00;101632.53;4947105;28;20062;-81
2023/10/10 12:01:51;;;;;;;28.77;16.13;;;;;;;19.34;100.00;101640.50;4967664;28;20050;-80
2023/10/10 12:04:31;;;;;;;31.63;16.00;;;;;;;19.39;100.00;101635.03;4942404;28;20515;-80
2023/10/10 12:07:00;;;;;;;30.42;17.27;;;;;;;19.42;100.00;101632.31;4902210;28;20058;-80
2023/10/10 12:09:33;;;;;;;26.70;17.13;;;;;;;19.47;100.00;101638.44;4952844;28;20436;-79
2023/10/10 12:12:04;;;;;;;32.20;18.70;;;;;;;19.59;100.00;101623.94;4948437;28;20050;-80
2023/10/10 12:14:32;;;;;;;30.50;20.02;;;;;;;19.68;100.00;101631.75;4938935;28;20062;-79
2023/10/10 12:17:05;;;;;;;32.63;19.45;;;;;;;19.72;100.00;101632.56;4924892;28;20047;-80
2023/10/10 12:19:37;;;;;;;33.40;19.13;;;;;;;19.71;100.00;101637.00;4958762;28;20832;-80
2023/10/10 12:22:10;;;;;;;30.35;19.15;;;;;;;19.69;100.00;101644.19;4923141;28;20078;-79
2023/10/10 12:24:39;;;;;;;28.70;18.77;;;;;;;19.67;100.00;101644.22;4903113;28;20054;-79
2023/10/10 12:27:07;;;;;;;26.80;17.90;;;;;;;19.69;100.00;101633.50;4958280;28;20065;-79
2023/10/10 12:29:39;;;;;;;30.85;18.05;;;;;;;19.72;100.00;101628.13;4912929;28;20051;-80
2023/10/10 12:32:15;;;;;;;30.45;20.63;;;;;;;19.75;100.00;101620.00;4939895;28;20578;-79
2023/10/10 12:34:43;;;;;;;27.00;17.38;;;;;;;19.79;100.00;101626.16;4958341;28;20043;-79
2023/10/10 12:37:12;;;;;;;28.80;18.83;;;;;;;19.78;100.00;101625.31;4921604;28;20054;-79
2023/10/10 12:39:39;;;;;;;31.42;18.45;;;;;;;19.80;100.00;101618.13;4903767;28;20062;-79
2023/10/10 12:42:07;;;;;;;29.48;17.77;;;;;;;19.85;100.00;101612.69;4935647;28;20087;-79
2023/10/10 12:44:35;;;;;;;33.92;18.35;;;;;;;19.91;100.00;101596.47;4924342;28;20050;-79
2023/10/10 12:47:06;;;;;;;29.92;18.10;;;;;;;20.00;100.00;101598.03;4935222;28;20043;-79
2023/10/10 12:49:44;;;;;;;27.33;18.10;;;;;;;20.11;100.00;101595.09;4948645;28;20054;-79
2023/10/10 12:52:12;;;;;;;34.03;19.60;;;;;;;20.17;100.00;101584.25;4952786;28;20043;-79
2023/10/10 12:54:41;;;;;;;29.15;17.95;;;;;;;20.22;100.00;101580.53;4885087;28;20059;-79
2023/10/10 12:57:14;;;;;;;30.52;17.27;;;;;;;20.34;100.00;101573.09;4947625;28;20043;-80
2023/10/10 12:59:48;;;;;;;27.73;17.38;;;;;;;20.48;100.00;101573.63;4893996;29;20445;-79
2023/10/10 13:02:15;;;;;;;25.25;17.05;;;;;;;20.55;100.00;101567.22;4924227;29;20048;-79
2023/10/10 13:04:46;;;;;;;31.50;18.08;;;;;;;20.56;100.00;101568.94;4950021;28;20051;-79
2023/10/10 13:07:16;;;;;;;26.05;16.17;;;;;;;20.50;100.00;101565.56;4910095;29;20078;-79
2023/10/10 13:09:46;;;;;;;27.80;17.20;;;;;;;20.44;100.00;101561.25;4887542;28;20054;-79
2023/10/10 13:12:27;;;;;;;26.08;17.00;;;;;;;20.40;100.00;101557.78;4945181;28;20035;-79
2023/10/10 13:15:16;;;;;;;29.02;17.02;;;;;;;20.37;100.00;101568.56;4924367;28;20104;-79
2023/10/10 13:18:11;;;;;;;29.88;17.52;;;;;;;20.41;100.00;101572.91;4924688;28;20061;-79
2023/10/10 13:20:39;;;;;;;34.35;19.80;;;;;;;20.42;100.00;101563.09;4938529;29;20043;-79
2023/10/10 13:23:06;;;;;;;25.80;17.58;;;;;;;20.43;100.00;101556.81;4912511;29;20035;-79
2023/10/10 13:25:37;;;;;;;30.55;17.52;;;;;;;20.45;100.00;101541.59;4897511;29;20051;-79
2023/10/10 13:28:09;;;;;;;26.48;18.27;;;;;;;20.44;100.00;101537.16;4933875;28;20832;-79
2023/10/10 13:30:38;;;;;;;29.25;18.58;;;;;;;20.40;100.00;101531.00;4924466;28;20051;-79
2023/10/10 13:33:07;;;;;;;30.83;17.92;;;;;;;20.38;100.00;101522.16;4916251;29;20823;-79
2023/10/10 13:35:37;;;;;;;26.95;18.88;;;;;;;20.36;100.00;101523.09;4935802;29;20059;-79
2023/10/10 13:38:06;;;;;;;27.35;18.27;;;;;;;20.34;100.00;101530.28;4927253;29;20066;-79
2023/10/10 13:40:37;;;;;;;27.05;18.75;;;;;;;20.31;100.00;101530.38;4912685;28;20054;-79
2023/10/10 13:43:26;;;;;;;30.05;18.50;;;;;;;20.30;100.00;101520.59;4918100;29;21026;-79
2023/10/10 13:45:55;;;;;;;31.42;18.45;;;;;;;20.25;100.00;101523.41;4925549;28;20047;-79
2023/10/10 13:48:24;;;;;;;30.17;17.30;;;;;;;20.21;100.00;101514.56;4935141;29;20051;-79
2023/10/10 13:50:54;;;;;;;25.00;17.67;;;;;;;20.16;100.00;101503.09;4921517;28;20826;-79
2023/10/10 13:53:21;;;;;;;28.35;17.30;;;;;;;20.13;100.00;101499.63;4934145;29;20043;-78
2023/10/10 13:55:49;;;;;;;26.85;17.73;;;;;;;20.10;100.00;101497.91;4910780;28;20059;-79
2023/10/10 13:58:16;;;;;;;26.35;18.50;;;;;;;20.06;100.00;101499.78;4914228;28;20043;-79
2023/10/10 14:00:52;;;;;;;28.45;17.63;;;;;;;20.02;100.00;101499.94;4935977;28;20546;-79
2023/10/10 14:03:28;;;;;;;27.48;17.45;;;;;;;20.00;100.00;101501.72;4952055;28;20393;-79
2023/10/10 14:06:04;;;;;;;28.38;17.13;;;;;;;20.00;100.00;101508.00;4925551;28;20496;-79
2023/10/10 14:08:31;;;;;;;25.52;16.80;;;;;;;19.99;100.00;101508.88;4959086;28;20058;-79
2023/10/10 14:11:00;;;;;;;25.27;16.92;;;;;;;19.99;100.00;101505.34;4933060;28;20061;-79
2023/10/10 14:13:28;;;;;;;26.83;18.42;;;;;;;20.00;100.00;101507.09;4911175;28;20043;-79
2023/10/10 14:15:57;;;;;;;25.45;17.08;;;;;;;19.98;100.00;101499.13;4956969;28;20042;-79
2023/10/10 14:18:24;;;;;;;22.45;16.60;;;;;;;19.97;100.00;101501.84;4955377;28;20055;-79
2023/10/10 14:20:53;;;;;;;24.52;15.05;;;;;;;19.93;100.00;101508.19;4943581;28;20050;-79